EGNH

Blackpool International Airport

Blackpool, United Kingdom
METAR EGNH 192050Z 27015KT 9999 FEW021 05/02 Q1004
Observed Flight Rules
Jan-19 @ 20:50 UTC (5 hours ago) Visual Flight Rules
Wind Visibility Clouds
270° at 15 knots 10,000+ meters
  • Few at 2,100' AGL
Temperatures Readings
Current 5°C / 41°F
Dewpoint 2°C / 36°F
Humidity 81%
Altimeter 29.65" Hg
Pressure 1004 hPa
Elevation 10
METAR EGNH 192050Z 27015KT 9999 FEW021 05/02 Q1004
Observed Flight Rules
Jan-19 @ 20:50 UTC
(5 hours ago)
VFR
Wind Visibility
270° at 15 knots 10,000+ meters
Clouds
  • Few at 2,100' AGL
Temperature Dewpoint
5°C / 41°F 2°C / 36°F
Humidity Altimeter Pressure
81% 29.65" Hg 1004 hPa